Nur fliegen ist schöner ....

Willkommen beim Flugservice Bautzen GmbH

Wir sind eine nach europäischen Richtlinien zugelassene Flugschule und lizenziertes Luftfahrtunternehmen. Bei uns können sie nicht nur Rundflüge über die Oberlausitz oder Sachsen buchen, sondern in unserer Flugschule selber das Fliegen erlernen. Erfahrene Fluglehrer stehen ihnen dabei zur Seite.

Wir bieten außerdem Businessflüghe sowie Transportleistungen auf dem Luftweg, ganz nach ihren Wünschen, an. Schauen sie sich in Ruhe bei uns um und wenn sie Fragen haben oder weitere Informationen benötigen, scheuen sie sich nicht Kontakt mit uns aufzunehmen.

Rundflüge können sie ganz leicht auch online in unserem Shop buchen.

Terminkalender

Letzter Monat Februar 2017 Nächster Monat
Mo Di Mi Do Fr Sa So
week 5 1 2 3 4 5
week 6 6 7 8 9 10 11 12
week 7 13 14 15 16 17 18 19
week 8 20 21 22 23 24 25 26
week 9 27 28

Flugwetterinfo

[Quelle: ADDS]
METAR
EDDC 280250Z 18011KT CAVOK 07/00 Q0996 =
TAF
EDDC 272300Z 2800/2824 17012KT 9999 SCT030 TEMPO 2800/2805 18015G25KT PROB40 TEMPO 2805/2808 20020G35KT RA BKN012 BECMG 2808/2811 17015G25KT BECMG 2816/2818 19008KT BECMG 2820/2823 28007KT 4500 RA BKN009 =
SR / SS: 05:47 / 16:41 UTC (EDAB Flugplatz Bautzen 2017-02-28)

Webcam EDAB

Webcam EDAB
Flugservice Bautzen GmbH, Kornmarkt 34, 02625 Bautzen  Telefon: +49 (3591) 211105, Telefax: +49 (3591) 274512, E-Mail:  flugservice(at)fsbautzen.de